createdAt,value
2017-09-23T00:00:18.566Z,0
2017-09-23T00:01:18.898Z,0
2017-09-23T00:02:18.930Z,0
2017-09-23T00:03:19.262Z,0
2017-09-23T00:04:19.285Z,0
2017-09-23T00:05:19.034Z,0
2017-09-23T00:06:33.917Z,0
2017-09-23T00:07:19.344Z,0
2017-09-23T00:08:19.043Z,0
2017-09-23T00:09:19.064Z,0
2017-09-23T00:10:19.408Z,0
2017-09-23T00:11:19.427Z,0
2017-09-23T00:12:18.805Z,0
2017-09-23T00:13:19.472Z,0
2017-09-23T00:14:19.489Z,0
2017-09-23T00:15:19.182Z,0
2017-09-23T00:16:19.521Z,0
2017-09-23T00:17:19.217Z,0
2017-09-23T00:18:19.565Z,0
2017-09-23T00:19:19.583Z,0
2017-09-23T00:20:18.966Z,0
2017-09-23T00:21:33.898Z,0
2017-09-23T00:22:34.235Z,0
2017-09-23T00:24:19.685Z,0
2017-09-23T00:25:19.383Z,0
2017-09-23T00:26:19.409Z,0
2017-09-23T00:27:19.747Z,0
2017-09-23T00:28:19.445Z,0
2017-09-23T00:29:19.781Z,0
2017-09-23T00:30:19.489Z,0
2017-09-23T00:31:19.828Z,0
2017-09-23T00:32:19.839Z,0
2017-09-23T00:33:19.544Z,0
2017-09-23T00:34:19.569Z,0
2017-09-23T00:35:19.902Z,0
2017-09-23T00:36:19.604Z,0
2017-09-23T00:37:34.537Z,0
2017-09-23T00:38:19.327Z,0
2017-09-23T00:39:19.661Z,0
2017-09-23T00:40:20.007Z,0
2017-09-23T00:41:19.699Z,0
2017-09-23T00:42:19.407Z,0
2017-09-23T00:43:20.062Z,0
2017-09-23T00:45:20.101Z,0
2017-09-23T00:46:34.711Z,0
2017-09-23T00:47:20.141Z,0
2017-09-23T00:48:20.163Z,0
2017-09-23T00:49:20.185Z,0
2017-09-23T00:50:20.201Z,0
2017-09-23T00:51:20.221Z,0
2017-09-23T00:53:34.852Z,0
2017-09-23T00:54:20.289Z,0
2017-09-23T00:55:20.302Z,0
2017-09-23T00:56:34.908Z,0
2017-09-23T00:57:20.341Z,0
2017-09-23T00:59:20.065Z,0
2017-09-23T01:00:19.763Z,0
2017-09-23T01:01:20.427Z,0
2017-09-23T01:02:20.441Z,0
2017-09-23T01:03:20.465Z,0
2017-09-23T01:04:20.482Z,0
2017-09-23T01:05:20.181Z,0
2017-09-23T01:07:20.534Z,0
2017-09-23T01:08:20.553Z,0
2017-09-23T01:09:35.166Z,0
2017-09-23T01:10:20.278Z,0
2017-09-23T01:11:34.889Z,0
2017-09-23T01:12:20.318Z,0
2017-09-23T01:13:20.335Z,0
2017-09-23T01:14:20.357Z,0
2017-09-23T01:16:20.076Z,0
2017-09-23T01:17:20.417Z,0
2017-09-23T01:18:20.436Z,0
2017-09-23T01:19:20.777Z,0
2017-09-23T01:20:20.471Z,0
2017-09-23T01:21:20.821Z,0
2017-09-23T01:22:20.832Z,0
2017-09-23T01:23:20.849Z,0
2017-09-23T01:24:20.556Z,0
2017-09-23T01:25:35.480Z,0
2017-09-23T01:26:20.592Z,0
2017-09-23T01:27:35.204Z,0
2017-09-23T01:28:35.544Z,0
2017-09-23T01:29:20.337Z,0
2017-09-23T01:30:20.994Z,0
2017-09-23T01:31:21.006Z,0
2017-09-23T01:32:21.024Z,0
2017-09-23T01:33:20.781Z,0
2017-09-23T01:34:21.069Z,0
2017-09-23T01:35:20.773Z,0
2017-09-23T01:36:21.112Z,0
2017-09-23T01:37:21.128Z,0
2017-09-23T01:38:21.160Z,0
2017-09-23T01:39:20.847Z,0
2017-09-23T01:40:21.182Z,0
2017-09-23T01:41:35.478Z,0
2017-09-23T01:42:21.224Z,0
2017-09-23T01:43:21.244Z,0
2017-09-23T01:44:20.942Z,0
2017-09-23T01:45:35.875Z,0
2017-09-23T01:46:35.623Z,0
2017-09-23T01:47:20.690Z,0
2017-09-23T01:48:35.932Z,0
2017-09-23T01:49:21.042Z,0
2017-09-23T01:50:21.380Z,0
2017-09-23T01:51:21.079Z,0
2017-09-23T01:52:21.101Z,0
2017-09-23T01:53:21.434Z,0
2017-09-23T01:54:21.459Z,0
2017-09-23T01:55:21.162Z,0
2017-09-23T01:56:35.769Z,0
2017-09-23T01:57:21.200Z,0
2017-09-23T01:58:21.543Z,0
2017-09-23T01:59:21.557Z,0
2017-09-23T02:00:21.257Z,0
2017-09-23T02:01:21.292Z,0
2017-09-23T02:02:21.618Z,0
2017-09-23T02:03:36.258Z,0
2017-09-23T02:04:21.652Z,0
2017-09-23T02:05:21.671Z,0
2017-09-23T02:06:21.689Z,0
2017-09-23T02:07:21.707Z,0
2017-09-23T02:08:21.732Z,0
2017-09-23T02:09:21.757Z,0
2017-09-23T02:10:21.452Z,0
2017-09-23T02:11:21.799Z,0
2017-09-23T02:12:21.490Z,0
2017-09-23T02:13:21.839Z,0
2017-09-23T02:14:21.553Z,0
2017-09-23T02:15:21.866Z,0
2017-09-23T02:16:36.480Z,0
2017-09-23T02:17:36.495Z,0
2017-09-23T02:18:21.930Z,0
2017-09-23T02:19:21.946Z,0
2017-09-23T02:21:21.987Z,0
2017-09-23T02:22:36.606Z,0
2017-09-23T02:23:22.022Z,0
2017-09-23T02:24:22.042Z,0
2017-09-23T02:25:22.061Z,0
2017-09-23T02:26:22.089Z,0
2017-09-23T02:27:22.099Z,0
2017-09-23T02:28:36.707Z,0
2017-09-23T02:29:21.823Z,0
2017-09-23T02:30:22.166Z,0
2017-09-23T02:31:22.196Z,0
2017-09-23T02:32:21.882Z,0
2017-09-23T02:34:22.237Z,0
2017-09-23T02:35:21.934Z,0
2017-09-23T02:36:21.955Z,0
2017-09-23T02:37:22.315Z,0
2017-09-23T02:38:22.313Z,0
2017-09-23T02:39:22.336Z,0
2017-09-23T02:40:21.722Z,0
2017-09-23T02:41:22.396Z,0
2017-09-23T02:42:22.391Z,0
2017-09-23T02:43:22.413Z,0
2017-09-23T02:44:37.019Z,0
2017-09-23T02:45:22.128Z,0
2017-09-23T02:46:36.743Z,0
2017-09-23T02:47:22.483Z,0
2017-09-23T02:48:22.509Z,0
2017-09-23T02:49:22.209Z,0
2017-09-23T02:50:22.545Z,0
2017-09-23T02:51:22.571Z,0
2017-09-23T02:52:22.583Z,0
2017-09-23T02:53:22.606Z,0
2017-09-23T02:54:22.629Z,0
2017-09-23T02:55:22.646Z,0
2017-09-23T02:56:22.660Z,0
2017-09-23T02:57:22.681Z,0
2017-09-23T02:58:22.702Z,0
2017-09-23T02:59:22.726Z,0
2017-09-23T03:00:37.011Z,0
2017-09-23T03:01:22.768Z,0
2017-09-23T03:02:22.780Z,0
2017-09-23T03:03:37.388Z,0
2017-09-23T03:04:22.813Z,0
2017-09-23T03:05:22.564Z,0
2017-09-23T03:06:22.856Z,0
2017-09-23T03:07:22.234Z,0
2017-09-23T03:08:22.572Z,0
2017-09-23T03:09:22.961Z,0
2017-09-23T03:10:22.930Z,0
2017-09-23T03:11:22.946Z,0
2017-09-23T03:12:22.652Z,0
2017-09-23T03:13:22.987Z,0
2017-09-23T03:14:22.371Z,0
2017-09-23T03:15:22.702Z,0
2017-09-23T03:16:37.317Z,0
2017-09-23T03:17:23.060Z,0
2017-09-23T03:18:23.078Z,0
2017-09-23T03:19:23.098Z,0
2017-09-23T03:20:22.855Z,0
2017-09-23T03:21:37.731Z,0
2017-09-23T03:22:23.172Z,0
2017-09-23T03:23:23.182Z,0
2017-09-23T03:24:23.201Z,0
2017-09-23T03:26:22.923Z,0
2017-09-23T03:27:23.255Z,0
2017-09-23T03:28:23.283Z,0
2017-09-23T03:29:22.971Z,0
2017-09-23T03:30:23.321Z,0
2017-09-23T03:31:37.921Z,0
2017-09-23T03:32:23.351Z,0
2017-09-23T03:33:23.050Z,0
2017-09-23T03:34:23.388Z,0
2017-09-23T03:35:37.995Z,0
2017-09-23T03:36:23.428Z,0
2017-09-23T03:37:23.445Z,0
2017-09-23T03:39:23.172Z,0
2017-09-23T03:40:23.502Z,0
2017-09-23T03:41:23.526Z,0
2017-09-23T03:43:23.566Z,0
2017-09-23T03:44:23.578Z,0
2017-09-23T03:45:23.599Z,0
2017-09-23T03:46:23.297Z,0
2017-09-23T03:47:23.637Z,0
2017-09-23T03:48:23.656Z,0
2017-09-23T03:49:23.674Z,0
2017-09-23T03:50:23.695Z,0
2017-09-23T03:51:23.392Z,0
2017-09-23T03:53:23.754Z,0
2017-09-23T03:54:23.135Z,0
2017-09-23T03:55:23.472Z,0
2017-09-23T03:56:23.808Z,0
2017-09-23T03:57:23.830Z,0
2017-09-23T03:58:23.528Z,0
2017-09-23T03:59:23.864Z,0
2017-09-23T04:00:23.882Z,0
2017-09-23T04:01:23.903Z,0
2017-09-23T04:02:23.922Z,0
2017-09-23T04:03:38.268Z,0
2017-09-23T04:04:23.652Z,0
2017-09-23T04:05:23.984Z,0
2017-09-23T04:06:23.997Z,0
2017-09-23T04:07:24.014Z,0
2017-09-23T04:08:23.719Z,0
2017-09-23T04:09:24.053Z,0
2017-09-23T04:10:24.081Z,0
2017-09-23T04:11:23.771Z,0
2017-09-23T04:13:24.136Z,0
2017-09-23T04:14:24.155Z,0
2017-09-23T04:15:24.166Z,0
2017-09-23T04:16:24.187Z,0
2017-09-23T04:17:24.208Z,0
2017-09-23T04:19:38.835Z,4
2017-09-23T04:20:24.266Z,4
2017-09-23T04:21:24.282Z,0
2017-09-23T04:22:24.298Z,4
2017-09-23T04:23:23.685Z,4
2017-09-23T04:26:24.384Z,8
2017-09-23T04:27:24.391Z,8
2017-09-23T04:28:24.095Z,8
2017-09-23T04:29:24.439Z,12
2017-09-23T04:30:24.134Z,12
2017-09-23T04:31:39.071Z,16
2017-09-23T04:32:24.492Z,20
2017-09-23T04:33:24.202Z,24
2017-09-23T04:34:24.531Z,28
2017-09-23T04:35:39.140Z,36
2017-09-23T04:36:24.565Z,40
2017-09-23T04:37:24.264Z,48
2017-09-23T04:39:39.214Z,68
2017-09-23T04:40:24.646Z,76
2017-09-23T04:41:24.670Z,84
2017-09-23T04:42:39.272Z,100
2017-09-23T04:43:24.700Z,112
2017-09-23T04:44:24.402Z,124
2017-09-23T04:45:24.747Z,144
2017-09-23T04:46:24.447Z,160
2017-09-23T04:47:24.457Z,180
2017-09-23T04:48:39.393Z,204
2017-09-23T04:49:24.814Z,220
2017-09-23T04:50:24.829Z,240
2017-09-23T04:51:39.445Z,272
2017-09-23T04:52:24.868Z,288
2017-09-23T04:53:24.888Z,316
2017-09-23T04:54:24.593Z,340
2017-09-23T04:56:24.626Z,396
2017-09-23T04:57:39.555Z,436
2017-09-23T04:58:24.984Z,456
2017-09-23T04:59:25.003Z,492
2017-09-23T05:00:25.026Z,528
2017-09-23T05:01:25.049Z,564
2017-09-23T05:02:24.742Z,604
2017-09-23T05:03:24.761Z,644
2017-09-23T05:04:25.098Z,688
2017-09-23T05:05:25.114Z,736
2017-09-23T05:06:39.733Z,796
2017-09-23T05:07:25.157Z,832
2017-09-23T05:08:25.175Z,880
2017-09-23T05:09:25.201Z,932
2017-09-23T05:10:39.850Z,988
2017-09-23T05:11:25.234Z,1024
2017-09-23T05:12:25.254Z,1068
2017-09-23T05:13:25.271Z,1112
2017-09-23T05:14:25.293Z,1156
2017-09-23T05:15:25.313Z,1208
2017-09-23T05:16:25.009Z,1260
2017-09-23T05:17:25.349Z,1316
2017-09-23T05:19:25.392Z,1428
2017-09-23T05:20:25.095Z,1488
2017-09-23T05:21:25.099Z,1552
2017-09-23T05:22:24.804Z,1612
2017-09-23T05:23:25.463Z,1688
2017-09-23T05:24:25.478Z,1768
2017-09-23T05:25:40.087Z,1828
2017-09-23T05:26:40.110Z,1892
2017-09-23T05:27:24.896Z,1940
2017-09-23T05:28:25.552Z,2000
2017-09-23T05:29:25.257Z,2048
2017-09-23T05:30:25.589Z,2096
2017-09-23T05:31:25.294Z,2152
2017-09-23T05:32:25.631Z,2208
2017-09-23T05:33:25.329Z,2268
2017-09-23T05:34:25.665Z,2324
2017-09-23T05:35:25.684Z,2380
2017-09-23T05:36:25.708Z,2444
2017-09-23T05:37:25.724Z,2512
2017-09-23T05:38:40.350Z,2596
2017-09-23T05:39:25.773Z,2636
2017-09-23T05:40:25.463Z,2700
2017-09-23T05:41:40.397Z,2768
2017-09-23T05:42:40.412Z,2824
2017-09-23T05:43:25.524Z,2864
2017-09-23T05:44:25.541Z,2924
2017-09-23T05:45:25.564Z,2980
2017-09-23T05:46:25.897Z,3036
2017-09-23T05:47:25.926Z,3100
2017-09-23T05:48:25.936Z,3164
2017-09-23T05:49:25.959Z,3232
2017-09-23T05:50:25.978Z,3296
2017-09-23T05:51:25.675Z,3360
2017-09-23T05:52:25.687Z,3432
2017-09-23T05:53:25.422Z,3500
2017-09-23T05:54:40.361Z,3592
2017-09-23T05:55:25.753Z,3640
2017-09-23T05:56:26.086Z,3716
2017-09-23T05:57:40.062Z,3836
2017-09-23T05:58:40.766Z,3976
2017-09-23T05:59:25.829Z,4140
2017-09-23T06:00:26.162Z,4700
2017-09-23T06:01:26.189Z,5384
2017-09-23T06:02:26.207Z,6468
2017-09-23T06:03:25.933Z,6380
2017-09-23T06:04:26.252Z,7816
2017-09-23T06:05:25.957Z,10340
2017-09-23T06:06:25.968Z,13620
2017-09-23T06:07:26.303Z,18656
2017-09-23T06:08:26.001Z,25344
2017-09-23T06:09:26.345Z,29920
2017-09-23T06:10:40.959Z,34496
2017-09-23T06:11:40.979Z,37952
2017-09-23T06:12:26.406Z,40480
2017-09-23T06:13:26.427Z,39904
2017-09-23T06:14:41.035Z,39456
2017-09-23T06:15:26.469Z,40448
2017-09-23T06:16:26.491Z,44032
2017-09-23T06:17:26.195Z,44256
2017-09-23T06:18:25.895Z,44064
2017-09-23T06:19:26.559Z,43424
2017-09-23T06:20:26.584Z,41184
2017-09-23T06:21:26.603Z,42272
2017-09-23T06:22:25.989Z,42976
2017-09-23T06:23:26.338Z,32672
2017-09-23T06:24:26.358Z,23904
2017-09-23T06:25:26.383Z,26752
2017-09-23T06:26:40.999Z,32864
2017-09-23T06:27:26.752Z,37088
2017-09-23T06:28:41.369Z,39264
2017-09-23T06:29:26.479Z,44160
2017-09-23T06:30:26.501Z,47136
2017-09-23T06:31:26.844Z,51232
2017-09-23T06:32:26.869Z,54624
2017-09-23T06:33:41.488Z,54688
2017-09-23T06:34:26.285Z,57024
2017-09-23T06:35:26.630Z,55296
2017-09-23T06:36:26.969Z,54944
2017-09-23T06:37:27.018Z,54272
2017-09-23T06:38:26.389Z,53568
2017-09-23T06:39:27.048Z,54272
2017-09-23T06:40:27.081Z,54912
2017-09-23T06:41:41.376Z,50720
2017-09-23T06:43:26.840Z,34528
2017-09-23T06:44:26.872Z,38016
2017-09-23T06:45:27.223Z,39424
2017-09-23T06:46:27.244Z,35648
2017-09-23T06:47:26.946Z,46464
2017-09-23T06:48:41.883Z,37760
2017-09-23T06:49:27.319Z,45312
2017-09-23T06:50:27.030Z,58656
2017-09-23T06:51:41.966Z,55136
2017-09-23T06:52:27.086Z,52320
2017-09-23T06:53:27.433Z,52384
2017-09-23T06:54:26.826Z,50912
2017-09-23T06:55:27.489Z,54976
2017-09-23T06:56:27.203Z,57536
2017-09-23T06:57:27.543Z,56384
2017-09-23T06:58:27.581Z,53856
2017-09-23T06:59:42.195Z,44768
2017-09-23T07:00:27.311Z,45408
2017-09-23T07:01:42.245Z,41856
2017-09-23T07:02:27.685Z,40896
2017-09-23T07:03:27.391Z,43648
2017-09-23T07:04:27.424Z,42784
2017-09-23T07:05:27.773Z,42976
2017-09-23T07:06:27.800Z,36160
2017-09-23T07:07:27.833Z,32480
2017-09-23T07:08:27.863Z,34656
2017-09-23T07:09:27.930Z,36352
2017-09-23T07:10:27.910Z,27520
2017-09-23T07:11:27.620Z,28800
2017-09-23T07:12:27.966Z,24224
2017-09-23T07:13:42.270Z,27456
2017-09-23T07:14:28.028Z,24960
2017-09-23T07:15:27.414Z,27328
2017-09-23T07:17:42.697Z,22176
2017-09-23T07:18:42.408Z,21120
2017-09-23T07:19:28.157Z,18944
2017-09-23T07:20:28.181Z,17408
2017-09-23T07:21:27.952Z,18336
2017-09-23T07:22:28.240Z,17440
2017-09-23T07:23:28.265Z,14528
2017-09-23T07:24:27.656Z,13016
2017-09-23T07:26:28.349Z,13944
2017-09-23T07:27:28.374Z,14552
2017-09-23T07:28:28.082Z,14440
2017-09-23T07:29:43.017Z,12792
2017-09-23T07:30:43.048Z,13508
2017-09-23T07:31:42.429Z,13956
2017-09-23T07:32:28.503Z,14476
2017-09-23T07:33:28.532Z,16576
2017-09-23T07:35:28.573Z,22880
2017-09-23T07:36:43.195Z,25408
2017-09-23T07:37:28.630Z,24032
2017-09-23T07:38:28.654Z,20032
2017-09-23T07:39:28.677Z,12928
2017-09-23T07:40:28.705Z,15940
2017-09-23T07:41:28.732Z,17728
2017-09-23T07:42:28.437Z,18272
2017-09-23T07:43:28.783Z,16288
2017-09-23T07:44:28.802Z,17024
2017-09-23T07:45:43.418Z,14932
2017-09-23T07:46:28.854Z,12868
2017-09-23T07:47:28.879Z,13012
2017-09-23T07:48:28.907Z,13540
2017-09-23T07:49:28.939Z,12488
2017-09-23T07:51:28.661Z,10956
2017-09-23T07:52:28.687Z,10408
2017-09-23T07:53:29.020Z,9528
2017-09-23T07:54:29.050Z,9356
2017-09-23T07:55:28.757Z,9148
2017-09-23T07:56:29.098Z,9056
2017-09-23T07:57:29.128Z,9148
2017-09-23T07:58:28.827Z,9236
2017-09-23T07:59:29.175Z,9456
2017-09-23T08:00:29.193Z,9440
2017-09-23T08:01:43.494Z,9680
2017-09-23T08:02:28.928Z,9988
2017-09-23T08:04:29.299Z,10376
2017-09-23T08:05:43.592Z,10916
2017-09-23T08:06:29.024Z,11508
2017-09-23T08:07:29.367Z,12796
2017-09-23T08:08:29.391Z,14140
2017-09-23T08:09:29.419Z,13436
2017-09-23T08:10:29.446Z,12132
2017-09-23T08:11:29.466Z,12984
2017-09-23T08:12:29.518Z,13392
2017-09-23T08:13:29.195Z,13684
2017-09-23T08:14:29.539Z,13188
2017-09-23T08:15:29.554Z,13652
2017-09-23T08:16:43.540Z,12504
2017-09-23T08:17:29.608Z,12596
2017-09-23T08:18:43.905Z,13312
2017-09-23T08:19:29.340Z,12652
2017-09-23T08:20:44.277Z,12128
2017-09-23T08:21:29.707Z,11668
2017-09-23T08:22:29.427Z,11852
2017-09-23T08:23:29.439Z,11068
2017-09-23T08:24:29.457Z,10888
2017-09-23T08:25:44.390Z,10748
2017-09-23T08:26:29.824Z,10556
2017-09-23T08:27:29.854Z,10628
2017-09-23T08:28:29.875Z,11560
2017-09-23T08:29:29.894Z,10816
2017-09-23T08:30:29.921Z,10300
2017-09-23T08:31:29.945Z,9392
2017-09-23T08:32:29.976Z,8984
2017-09-23T08:33:29.672Z,9048
2017-09-23T08:34:30.022Z,8956
2017-09-23T08:35:30.045Z,8896
2017-09-23T08:36:29.746Z,8672
2017-09-23T08:37:29.768Z,8600
2017-09-23T08:39:29.816Z,8144
2017-09-23T08:40:30.163Z,8028
2017-09-23T08:42:30.203Z,7820
2017-09-23T08:43:30.229Z,7588
2017-09-23T08:44:30.252Z,7376
2017-09-23T08:45:29.964Z,7188
2017-09-23T08:46:30.026Z,7072
2017-09-23T08:47:30.329Z,7000
2017-09-23T08:48:44.944Z,6944
2017-09-23T08:49:30.374Z,6916
2017-09-23T08:50:30.081Z,6896
2017-09-23T08:51:30.422Z,6920
2017-09-23T08:52:45.042Z,6964
2017-09-23T08:53:30.472Z,6996
2017-09-23T08:54:30.497Z,7048
2017-09-23T08:55:44.841Z,7140
2017-09-23T08:56:45.148Z,7232
2017-09-23T08:57:30.562Z,7296
2017-09-23T08:58:30.605Z,7396
2017-09-23T08:59:30.613Z,7488
2017-09-23T09:00:30.634Z,7556
2017-09-23T09:01:30.662Z,7664
2017-09-23T09:02:30.363Z,7752
2017-09-23T09:03:30.706Z,7820
2017-09-23T09:04:45.324Z,7904
2017-09-23T09:05:30.752Z,7976
2017-09-23T09:06:30.469Z,8056
2017-09-23T09:07:30.482Z,8124
2017-09-23T09:08:30.509Z,8172
2017-09-23T09:09:45.442Z,8088
2017-09-23T09:10:45.147Z,8064
2017-09-23T09:11:30.579Z,8120
2017-09-23T09:12:30.604Z,8136
2017-09-23T09:13:30.305Z,8188
2017-09-23T09:14:30.654Z,8224
2017-09-23T09:15:30.994Z,8296
2017-09-23T09:16:31.012Z,8408
2017-09-23T09:17:30.720Z,8524
2017-09-23T09:18:31.063Z,8600
2017-09-23T09:19:31.095Z,8696
2017-09-23T09:20:45.707Z,8856
2017-09-23T09:22:45.434Z,9176
2017-09-23T09:23:31.180Z,9252
2017-09-23T09:24:45.480Z,9412
2017-09-23T09:25:45.819Z,9592
2017-09-23T09:26:45.846Z,9780
2017-09-23T09:27:30.960Z,9988
2017-09-23T09:28:31.308Z,10140
2017-09-23T09:29:31.008Z,10380
2017-09-23T09:30:31.353Z,10588
2017-09-23T09:31:31.370Z,10756
2017-09-23T09:32:31.403Z,11032
2017-09-23T09:33:31.103Z,11368
2017-09-23T09:34:31.128Z,11700
2017-09-23T09:35:31.151Z,12008
2017-09-23T09:36:46.084Z,12552
2017-09-23T09:37:30.880Z,12684
2017-09-23T09:38:31.222Z,13064
2017-09-23T09:39:46.158Z,13428
2017-09-23T09:40:31.279Z,13676
2017-09-23T09:41:31.309Z,14052
2017-09-23T09:42:31.644Z,13940
2017-09-23T09:43:31.660Z,14092
2017-09-23T09:44:31.689Z,14172
2017-09-23T09:45:31.079Z,14240
2017-09-23T09:46:31.736Z,14636
2017-09-23T09:47:31.760Z,13860
2017-09-23T09:48:31.788Z,13980
2017-09-23T09:49:31.491Z,13736
2017-09-23T09:50:31.832Z,16372
2017-09-23T09:51:46.447Z,14076
2017-09-23T09:52:31.905Z,14760
2017-09-23T09:53:46.178Z,14660
2017-09-23T09:55:31.316Z,13268
2017-09-23T09:56:31.981Z,13880
2017-09-23T09:57:46.277Z,14768
2017-09-23T09:58:32.048Z,15520
2017-09-23T09:59:32.102Z,14708
2017-09-23T10:00:31.439Z,15464
2017-09-23T10:01:46.693Z,17568
2017-09-23T10:02:31.808Z,16396
2017-09-23T10:03:32.153Z,16776
2017-09-23T10:04:32.187Z,17088
2017-09-23T10:05:32.203Z,15612
2017-09-23T10:06:32.228Z,16092
2017-09-23T10:07:31.933Z,14924
2017-09-23T10:08:32.277Z,15808
2017-09-23T10:09:32.295Z,15996
2017-09-23T10:10:46.602Z,14456
2017-09-23T10:12:32.381Z,12708
2017-09-23T10:13:32.412Z,12204
2017-09-23T10:15:32.448Z,11520
2017-09-23T10:16:47.113Z,11416
2017-09-23T10:17:32.505Z,11280
2017-09-23T10:18:32.522Z,11472
2017-09-23T10:19:32.557Z,11580
2017-09-23T10:20:32.569Z,11352
2017-09-23T10:21:32.597Z,11320
2017-09-23T10:22:32.619Z,11344
2017-09-23T10:24:01.828Z,10984
2017-09-23T10:24:47.263Z,10808
2017-09-23T10:25:32.391Z,10924
2017-09-23T10:26:47.308Z,11188
2017-09-23T10:27:32.448Z,11432
2017-09-23T10:28:32.448Z,11252
2017-09-23T10:29:32.474Z,10920
2017-09-23T10:30:32.497Z,11076
2017-09-23T10:31:32.841Z,10728
2017-09-23T10:32:32.868Z,10592
2017-09-23T10:33:32.899Z,10412
2017-09-23T10:34:32.912Z,10428
2017-09-23T10:35:32.621Z,10336
2017-09-23T10:36:32.654Z,10236
2017-09-23T10:37:32.669Z,10328
2017-09-23T10:38:33.014Z,10120
2017-09-23T10:39:47.627Z,9920
2017-09-23T10:40:32.108Z,9928
2017-09-23T10:41:47.359Z,9848
2017-09-23T10:43:32.500Z,9960
2017-09-23T10:44:47.433Z,9796
2017-09-23T10:45:32.866Z,9684
2017-09-23T10:46:33.213Z,9484
2017-09-23T10:47:32.600Z,9324
2017-09-23T10:48:33.260Z,8968
2017-09-23T10:49:32.971Z,8840
2017-09-23T10:50:32.989Z,8704
2017-09-23T10:51:33.334Z,8604
2017-09-23T10:52:33.359Z,8524
2017-09-23T10:53:33.384Z,8476
2017-09-23T10:54:33.085Z,8420
2017-09-23T10:55:48.021Z,8364
2017-09-23T10:56:48.045Z,8332
2017-09-23T10:57:33.159Z,8312
2017-09-23T10:58:33.503Z,8252
2017-09-23T10:59:33.210Z,8292
2017-09-23T11:00:33.229Z,8360
2017-09-23T11:01:33.586Z,8380
2017-09-23T11:02:32.960Z,8432
2017-09-23T11:03:33.632Z,8464
2017-09-23T11:04:33.650Z,8508
2017-09-23T11:05:33.671Z,8556
2017-09-23T11:06:33.701Z,8616
2017-09-23T11:07:33.085Z,8588
2017-09-23T11:08:33.747Z,8632
2017-09-23T11:09:33.775Z,8664
2017-09-23T11:10:33.791Z,8672
2017-09-23T11:11:48.411Z,8624
2017-09-23T11:12:33.524Z,8636
2017-09-23T11:13:33.875Z,8676
2017-09-23T11:14:33.896Z,8736
2017-09-23T11:16:33.623Z,8848
2017-09-23T11:17:33.644Z,8916
2017-09-23T11:18:33.992Z,8920
2017-09-23T11:19:34.022Z,8868
2017-09-23T11:20:34.040Z,8780
2017-09-23T11:21:34.068Z,8684
2017-09-23T11:22:33.771Z,8568
2017-09-23T11:23:34.113Z,8492
2017-09-23T11:24:33.822Z,8468
2017-09-23T11:25:34.173Z,8524
2017-09-23T11:26:48.780Z,8508
2017-09-23T11:27:34.243Z,8472
2017-09-23T11:28:33.923Z,8452
2017-09-23T11:29:48.850Z,8476
2017-09-23T11:30:34.280Z,8500
2017-09-23T11:31:33.670Z,8536
2017-09-23T11:32:34.057Z,8748
2017-09-23T11:33:34.358Z,8924
2017-09-23T11:34:34.066Z,9324
2017-09-23T11:35:34.410Z,9688
2017-09-23T11:36:49.020Z,9680
2017-09-23T11:37:34.136Z,9588
2017-09-23T11:38:34.162Z,8588
2017-09-23T11:39:34.189Z,7968
2017-09-23T11:40:34.532Z,7720
2017-09-23T11:41:34.553Z,7488
2017-09-23T11:42:34.627Z,7244
2017-09-23T11:43:34.599Z,6996
2017-09-23T11:44:34.308Z,6820
2017-09-23T11:45:49.243Z,6700
2017-09-23T11:47:34.385Z,6592
2017-09-23T11:48:48.997Z,6504
2017-09-23T11:49:34.112Z,6460
2017-09-23T11:50:34.456Z,6456
2017-09-23T11:51:34.796Z,6464
2017-09-23T11:52:34.821Z,6484
2017-09-23T11:53:34.529Z,6496
2017-09-23T11:54:34.558Z,6512
2017-09-23T11:55:34.259Z,6508
2017-09-23T11:56:34.920Z,6448
2017-09-23T11:57:34.953Z,6336
2017-09-23T11:58:49.568Z,6172
2017-09-23T12:00:34.699Z,5904
2017-09-23T12:02:49.023Z,5428
2017-09-23T12:03:35.099Z,5284
2017-09-23T12:04:49.707Z,5116
2017-09-23T12:05:34.501Z,5032
2017-09-23T12:06:34.851Z,4928
2017-09-23T12:07:35.190Z,4800
2017-09-23T12:08:34.891Z,4684
2017-09-23T12:09:35.233Z,4588
2017-09-23T12:10:34.942Z,4544
2017-09-23T12:11:35.290Z,4544
2017-09-23T12:13:49.932Z,4536
2017-09-23T12:14:49.633Z,4528
2017-09-23T12:15:34.746Z,4508
2017-09-23T12:17:35.445Z,4448
2017-09-23T12:18:35.452Z,4460
2017-09-23T12:19:35.162Z,4504
2017-09-23T12:20:35.500Z,4536
2017-09-23T12:21:50.118Z,4548
2017-09-23T12:22:50.145Z,4536
2017-09-23T12:23:35.580Z,4528
2017-09-23T12:24:35.598Z,4516
2017-09-23T12:26:35.332Z,4588
2017-09-23T12:27:35.669Z,4656
2017-09-23T12:28:35.375Z,4740
2017-09-23T12:29:35.721Z,4852
2017-09-23T12:30:50.362Z,4980
2017-09-23T12:31:35.768Z,5032
2017-09-23T12:32:50.386Z,5080
2017-09-23T12:33:35.813Z,5128
2017-09-23T12:34:35.514Z,5180
2017-09-23T12:35:35.541Z,5236
2017-09-23T12:36:35.887Z,5300
2017-09-23T12:37:35.644Z,5380
2017-09-23T12:38:35.617Z,5464
2017-09-23T12:39:35.958Z,5524
2017-09-23T12:40:35.992Z,5532
2017-09-23T12:41:35.687Z,5540
2017-09-23T12:42:36.033Z,5496
2017-09-23T12:43:35.734Z,5476
2017-09-23T12:44:35.809Z,5472
2017-09-23T12:45:35.793Z,5484
2017-09-23T12:46:50.720Z,5504
2017-09-23T12:47:50.425Z,5540
2017-09-23T12:48:50.446Z,5556
2017-09-23T12:49:36.196Z,5536
2017-09-23T12:50:50.812Z,5456
2017-09-23T12:52:36.271Z,5292
2017-09-23T12:53:35.975Z,5188
2017-09-23T12:54:36.317Z,5072
2017-09-23T12:55:36.080Z,4984
2017-09-23T12:56:36.046Z,4948
2017-09-23T12:57:36.067Z,4952
2017-09-23T12:58:36.092Z,4980
2017-09-23T12:59:36.117Z,5016
2017-09-23T13:00:36.137Z,5064
2017-09-23T13:01:50.762Z,5136
2017-09-23T13:02:36.188Z,5212
2017-09-23T13:03:50.803Z,5308
2017-09-23T13:04:50.830Z,5352
2017-09-23T13:05:36.585Z,5368
2017-09-23T13:06:35.967Z,5384
2017-09-23T13:07:51.222Z,5416
2017-09-23T13:08:36.333Z,5444
2017-09-23T13:09:36.676Z,5480
2017-09-23T13:10:36.383Z,5544
2017-09-23T13:11:36.086Z,5632
2017-09-23T13:12:36.744Z,5716
2017-09-23T13:13:36.771Z,5792
2017-09-23T13:15:36.815Z,5940
2017-09-23T13:16:36.841Z,5976
2017-09-23T13:17:51.462Z,6064
2017-09-23T13:18:36.572Z,6100
2017-09-23T13:19:36.599Z,6100
2017-09-23T13:20:51.532Z,6076
2017-09-23T13:21:36.646Z,6040
2017-09-23T13:22:51.578Z,5968
2017-09-23T13:24:37.035Z,5872
2017-09-23T13:25:36.742Z,5788
2017-09-23T13:26:37.088Z,5624
2017-09-23T13:27:36.471Z,5440
2017-09-23T13:28:37.142Z,5256
2017-09-23T13:29:37.157Z,5132
2017-09-23T13:30:36.861Z,5056
2017-09-23T13:31:37.204Z,4984
2017-09-23T13:32:36.907Z,4980
2017-09-23T13:33:51.850Z,4884
2017-09-23T13:34:36.953Z,4620
2017-09-23T13:35:37.304Z,4476
2017-09-23T13:36:36.368Z,4316
2017-09-23T13:37:37.344Z,4124
2017-09-23T13:38:51.963Z,3960
2017-09-23T13:39:36.760Z,3908
2017-09-23T13:40:37.105Z,3804
2017-09-23T13:41:37.134Z,3688
2017-09-23T13:42:37.475Z,3544
2017-09-23T13:43:37.497Z,3384
2017-09-23T13:44:37.201Z,3244
2017-09-23T13:45:37.544Z,3100
2017-09-23T13:46:52.162Z,2908
2017-09-23T13:47:36.631Z,2808
2017-09-23T13:48:37.293Z,2704
2017-09-23T13:49:52.227Z,2644
2017-09-23T13:50:37.337Z,2612
2017-09-23T13:51:37.681Z,2596
2017-09-23T13:52:37.717Z,2608
2017-09-23T13:53:37.471Z,2632
2017-09-23T13:54:37.758Z,2644
2017-09-23T13:55:52.369Z,2660
2017-09-23T13:56:37.812Z,2656
2017-09-23T13:57:37.822Z,2688
2017-09-23T13:58:37.530Z,2720
2017-09-23T13:59:37.554Z,2720
2017-09-23T14:00:37.583Z,2696
2017-09-23T14:01:37.919Z,2652
2017-09-23T14:02:37.940Z,2624
2017-09-23T14:03:37.651Z,2596
2017-09-23T14:04:37.995Z,2548
2017-09-23T14:05:52.613Z,2456
2017-09-23T14:06:37.405Z,2384
2017-09-23T14:07:37.426Z,2340
2017-09-23T14:09:38.110Z,2408
2017-09-23T14:10:38.131Z,2428
2017-09-23T14:11:52.747Z,2412
2017-09-23T14:12:37.867Z,2392
2017-09-23T14:13:38.211Z,2376
2017-09-23T14:14:37.912Z,2360
2017-09-23T14:15:37.941Z,2348
2017-09-23T14:16:38.278Z,2372
2017-09-23T14:17:38.299Z,2360
2017-09-23T14:18:38.015Z,2320
2017-09-23T14:19:38.348Z,2276
2017-09-23T14:20:38.053Z,2224
2017-09-23T14:21:52.984Z,2160